sensor_id;sensor_type;location;lat;lon;timestamp;temperature;humidity
290;DHT22;13193;48.874;9.086;2022-09-09T00:02:08;14.80;1.00
290;DHT22;13193;48.874;9.086;2022-09-09T00:04:40;14.80;1.00
290;DHT22;13193;48.874;9.086;2022-09-09T00:09:49;15.00;1.00
290;DHT22;13193;48.874;9.086;2022-09-09T00:12:55;15.10;1.00
290;DHT22;13193;48.874;9.086;2022-09-09T00:15:38;15.10;1.00
290;DHT22;13193;48.874;9.086;2022-09-09T00:21:05;15.20;1.00
290;DHT22;13193;48.874;9.086;2022-09-09T00:23:46;15.30;1.00
290;DHT22;13193;48.874;9.086;2022-09-09T00:26:30;15.30;1.00
290;DHT22;13193;48.874;9.086;2022-09-09T00:31:28;15.40;1.00
290;DHT22;13193;48.874;9.086;2022-09-09T00:34:00;15.40;1.00
290;DHT22;13193;48.874;9.086;2022-09-09T00:36:28;15.50;1.00
290;DHT22;13193;48.874;9.086;2022-09-09T00:39:00;15.30;1.00
290;DHT22;13193;48.874;9.086;2022-09-09T00:44:36;15.30;1.00
290;DHT22;13193;48.874;9.086;2022-09-09T00:49:59;15.30;1.00
290;DHT22;13193;48.874;9.086;2022-09-09T00:52:47;15.40;1.00
290;DHT22;13193;48.874;9.086;2022-09-09T00:57:57;15.50;1.00
290;DHT22;13193;48.874;9.086;2022-09-09T01:00:29;15.50;1.00
290;DHT22;13193;48.874;9.086;2022-09-09T01:08:42;15.60;1.00
290;DHT22;13193;48.874;9.086;2022-09-09T01:11:22;15.70;1.00
290;DHT22;13193;48.874;9.086;2022-09-09T01:13:56;15.70;1.00
290;DHT22;13193;48.874;9.086;2022-09-09T01:16:25;15.70;1.00
290;DHT22;13193;48.874;9.086;2022-09-09T01:18:53;15.70;1.00
290;DHT22;13193;48.874;9.086;2022-09-09T01:21:47;15.70;1.00
290;DHT22;13193;48.874;9.086;2022-09-09T01:26:48;15.70;1.00
290;DHT22;13193;48.874;9.086;2022-09-09T01:29:17;16.00;1.00
290;DHT22;13193;48.874;9.086;2022-09-09T01:31:58;15.80;1.00
290;DHT22;13193;48.874;9.086;2022-09-09T01:34:28;15.80;1.00
290;DHT22;13193;48.874;9.086;2022-09-09T01:37:06;15.80;1.00
290;DHT22;13193;48.874;9.086;2022-09-09T01:39:34;15.80;1.00
290;DHT22;13193;48.874;9.086;2022-09-09T01:42:01;15.80;1.00
290;DHT22;13193;48.874;9.086;2022-09-09T01:44:28;15.80;1.00
290;DHT22;13193;48.874;9.086;2022-09-09T01:46:54;15.90;1.00
290;DHT22;13193;48.874;9.086;2022-09-09T01:49:20;15.90;1.00
290;DHT22;13193;48.874;9.086;2022-09-09T01:51:50;15.90;1.00
290;DHT22;13193;48.874;9.086;2022-09-09T01:54:17;15.90;1.00
290;DHT22;13193;48.874;9.086;2022-09-09T01:57:01;15.90;1.00
290;DHT22;13193;48.874;9.086;2022-09-09T01:59:58;15.90;1.00
290;DHT22;13193;48.874;9.086;2022-09-09T02:02:26;16.00;1.00
290;DHT22;13193;48.874;9.086;2022-09-09T02:05:26;16.00;1.00
290;DHT22;13193;48.874;9.086;2022-09-09T02:08:20;16.00;1.00
290;DHT22;13193;48.874;9.086;2022-09-09T02:10:59;16.00;1.00
290;DHT22;13193;48.874;9.086;2022-09-09T02:13:27;16.00;1.00
290;DHT22;13193;48.874;9.086;2022-09-09T02:16:08;16.00;1.00
290;DHT22;13193;48.874;9.086;2022-09-09T02:18:50;16.00;1.00
290;DHT22;13193;48.874;9.086;2022-09-09T02:21:17;15.90;1.00
290;DHT22;13193;48.874;9.086;2022-09-09T02:23:44;15.90;1.00
290;DHT22;13193;48.874;9.086;2022-09-09T02:26:13;15.80;1.00
290;DHT22;13193;48.874;9.086;2022-09-09T02:28:46;15.70;1.00
290;DHT22;13193;48.874;9.086;2022-09-09T02:31:13;15.70;1.00
290;DHT22;13193;48.874;9.086;2022-09-09T02:33:43;15.50;1.00
290;DHT22;13193;48.874;9.086;2022-09-09T02:36:11;15.40;1.00
290;DHT22;13193;48.874;9.086;2022-09-09T02:38:42;15.30;1.00
290;DHT22;13193;48.874;9.086;2022-09-09T02:41:11;15.20;1.00
290;DHT22;13193;48.874;9.086;2022-09-09T02:43:36;15.00;1.00
290;DHT22;13193;48.874;9.086;2022-09-09T02:49:09;14.80;1.00
290;DHT22;13193;48.874;9.086;2022-09-09T02:52:08;14.90;1.00
290;DHT22;13193;48.874;9.086;2022-09-09T02:54:39;14.70;1.00
290;DHT22;13193;48.874;9.086;2022-09-09T02:57:11;14.60;1.00
290;DHT22;13193;48.874;9.086;2022-09-09T02:59:38;14.60;1.00
290;DHT22;13193;48.874;9.086;2022-09-09T03:02:04;14.60;1.00
290;DHT22;13193;48.874;9.086;2022-09-09T03:04:30;14.70;1.00
290;DHT22;13193;48.874;9.086;2022-09-09T03:06:57;14.50;1.00
290;DHT22;13193;48.874;9.086;2022-09-09T03:09:23;14.50;1.00
290;DHT22;13193;48.874;9.086;2022-09-09T03:11:49;14.70;1.00
290;DHT22;13193;48.874;9.086;2022-09-09T03:14:15;15.00;1.00
290;DHT22;13193;48.874;9.086;2022-09-09T03:16:41;14.70;1.00
290;DHT22;13193;48.874;9.086;2022-09-09T03:19:09;14.80;1.00
290;DHT22;13193;48.874;9.086;2022-09-09T03:21:35;14.50;1.00
290;DHT22;13193;48.874;9.086;2022-09-09T03:24:02;14.50;1.00
290;DHT22;13193;48.874;9.086;2022-09-09T03:26:29;14.50;1.00
290;DHT22;13193;48.874;9.086;2022-09-09T03:28:56;14.50;1.00
290;DHT22;13193;48.874;9.086;2022-09-09T03:31:22;14.40;1.00
290;DHT22;13193;48.874;9.086;2022-09-09T03:33:48;14.30;1.00
290;DHT22;13193;48.874;9.086;2022-09-09T03:36:14;14.50;1.00
290;DHT22;13193;48.874;9.086;2022-09-09T03:38:41;14.10;1.00
290;DHT22;13193;48.874;9.086;2022-09-09T03:41:06;14.20;1.00
290;DHT22;13193;48.874;9.086;2022-09-09T03:43:33;14.20;1.00
290;DHT22;13193;48.874;9.086;2022-09-09T03:45:59;14.20;1.00
290;DHT22;13193;48.874;9.086;2022-09-09T03:48:25;14.20;1.00
290;DHT22;13193;48.874;9.086;2022-09-09T03:50:53;14.20;1.00
290;DHT22;13193;48.874;9.086;2022-09-09T03:53:21;14.30;1.00
290;DHT22;13193;48.874;9.086;2022-09-09T03:55:50;14.30;1.00
290;DHT22;13193;48.874;9.086;2022-09-09T03:58:18;14.90;1.00
290;DHT22;13193;48.874;9.086;2022-09-09T04:00:59;14.40;1.00
290;DHT22;13193;48.874;9.086;2022-09-09T04:03:25;14.50;1.00
290;DHT22;13193;48.874;9.086;2022-09-09T04:05:52;14.70;1.00
290;DHT22;13193;48.874;9.086;2022-09-09T04:08:19;14.70;1.00
290;DHT22;13193;48.874;9.086;2022-09-09T04:10:46;14.70;1.00
290;DHT22;13193;48.874;9.086;2022-09-09T04:13:13;14.70;1.00
290;DHT22;13193;48.874;9.086;2022-09-09T04:15:40;14.70;1.00
290;DHT22;13193;48.874;9.086;2022-09-09T04:18:06;14.60;1.00
290;DHT22;13193;48.874;9.086;2022-09-09T04:20:32;14.60;1.00
290;DHT22;13193;48.874;9.086;2022-09-09T04:22:58;14.60;1.00
290;DHT22;13193;48.874;9.086;2022-09-09T04:25:24;14.50;1.00
290;DHT22;13193;48.874;9.086;2022-09-09T04:27:56;14.50;1.00
290;DHT22;13193;48.874;9.086;2022-09-09T04:30:24;14.60;1.00
290;DHT22;13193;48.874;9.086;2022-09-09T04:32:50;14.70;1.00
290;DHT22;13193;48.874;9.086;2022-09-09T04:35:16;14.70;1.00
290;DHT22;13193;48.874;9.086;2022-09-09T04:37:41;14.90;1.00
290;DHT22;13193;48.874;9.086;2022-09-09T04:40:08;14.90;1.00
290;DHT22;13193;48.874;9.086;2022-09-09T04:42:38;15.00;1.00
290;DHT22;13193;48.874;9.086;2022-09-09T04:45:05;15.00;1.00
290;DHT22;13193;48.874;9.086;2022-09-09T04:47:32;15.20;1.00
290;DHT22;13193;48.874;9.086;2022-09-09T04:49:59;15.30;1.00
290;DHT22;13193;48.874;9.086;2022-09-09T04:52:25;15.30;1.00
290;DHT22;13193;48.874;9.086;2022-09-09T04:54:51;15.30;1.00
290;DHT22;13193;48.874;9.086;2022-09-09T04:57:19;15.40;1.00
290;DHT22;13193;48.874;9.086;2022-09-09T04:59:45;15.40;1.00
290;DHT22;13193;48.874;9.086;2022-09-09T05:02:11;15.40;1.00
290;DHT22;13193;48.874;9.086;2022-09-09T05:04:36;15.40;1.00
290;DHT22;13193;48.874;9.086;2022-09-09T05:07:02;15.40;1.00
290;DHT22;13193;48.874;9.086;2022-09-09T05:09:28;15.40;1.00
290;DHT22;13193;48.874;9.086;2022-09-09T05:11:54;15.40;1.00
290;DHT22;13193;48.874;9.086;2022-09-09T05:14:20;15.40;1.00
290;DHT22;13193;48.874;9.086;2022-09-09T05:16:45;15.40;1.00
290;DHT22;13193;48.874;9.086;2022-09-09T05:19:12;15.50;1.00
290;DHT22;13193;48.874;9.086;2022-09-09T05:21:38;15.50;1.00
290;DHT22;13193;48.874;9.086;2022-09-09T05:24:04;15.70;1.00
290;DHT22;13193;48.874;9.086;2022-09-09T05:26:29;15.70;1.00
290;DHT22;13193;48.874;9.086;2022-09-09T05:28:55;15.80;1.00
290;DHT22;13193;48.874;9.086;2022-09-09T05:31:22;15.90;1.00
290;DHT22;13193;48.874;9.086;2022-09-09T05:33:48;16.00;1.00
290;DHT22;13193;48.874;9.086;2022-09-09T05:36:15;16.00;1.00
290;DHT22;13193;48.874;9.086;2022-09-09T05:38:44;16.20;1.00
290;DHT22;13193;48.874;9.086;2022-09-09T05:41:13;16.20;1.00
290;DHT22;13193;48.874;9.086;2022-09-09T05:43:41;16.30;1.00
290;DHT22;13193;48.874;9.086;2022-09-09T05:46:16;16.40;1.00
290;DHT22;13193;48.874;9.086;2022-09-09T05:48:45;16.50;1.00
290;DHT22;13193;48.874;9.086;2022-09-09T05:51:18;16.60;1.00
290;DHT22;13193;48.874;9.086;2022-09-09T05:53:48;16.60;1.00
290;DHT22;13193;48.874;9.086;2022-09-09T05:56:16;16.70;1.00
290;DHT22;13193;48.874;9.086;2022-09-09T05:58:46;16.90;1.00
290;DHT22;13193;48.874;9.086;2022-09-09T06:01:15;17.00;1.00
290;DHT22;13193;48.874;9.086;2022-09-09T06:03:42;17.10;1.00
290;DHT22;13193;48.874;9.086;2022-09-09T06:06:17;17.10;1.00
290;DHT22;13193;48.874;9.086;2022-09-09T06:08:44;17.20;1.00
290;DHT22;13193;48.874;9.086;2022-09-09T06:11:11;17.30;1.00
290;DHT22;13193;48.874;9.086;2022-09-09T06:13:38;17.30;1.00
290;DHT22;13193;48.874;9.086;2022-09-09T06:16:11;17.40;1.00
290;DHT22;13193;48.874;9.086;2022-09-09T06:18:41;17.60;1.00
290;DHT22;13193;48.874;9.086;2022-09-09T06:21:11;17.70;1.00
290;DHT22;13193;48.874;9.086;2022-09-09T06:23:40;17.80;1.00
290;DHT22;13193;48.874;9.086;2022-09-09T06:26:14;18.00;1.00
290;DHT22;13193;48.874;9.086;2022-09-09T06:28:41;18.00;1.00
290;DHT22;13193;48.874;9.086;2022-09-09T06:31:10;18.10;1.00
290;DHT22;13193;48.874;9.086;2022-09-09T06:33:38;18.10;1.00
290;DHT22;13193;48.874;9.086;2022-09-09T06:36:11;18.10;1.00
290;DHT22;13193;48.874;9.086;2022-09-09T06:38:37;18.20;1.00
290;DHT22;13193;48.874;9.086;2022-09-09T06:41:03;18.20;1.00
290;DHT22;13193;48.874;9.086;2022-09-09T06:43:31;18.20;1.00
290;DHT22;13193;48.874;9.086;2022-09-09T06:46:01;18.10;1.00
290;DHT22;13193;48.874;9.086;2022-09-09T06:48:28;18.20;1.00
290;DHT22;13193;48.874;9.086;2022-09-09T06:51:03;18.20;1.00
290;DHT22;13193;48.874;9.086;2022-09-09T06:53:32;18.40;1.00
290;DHT22;13193;48.874;9.086;2022-09-09T06:58:27;18.70;1.00
290;DHT22;13193;48.874;9.086;2022-09-09T07:01:05;18.80;1.00
290;DHT22;13193;48.874;9.086;2022-09-09T07:03:31;18.90;1.00
290;DHT22;13193;48.874;9.086;2022-09-09T07:05:57;18.90;1.00
290;DHT22;13193;48.874;9.086;2022-09-09T07:08:23;19.00;1.00
290;DHT22;13193;48.874;9.086;2022-09-09T07:10:50;19.10;1.00
290;DHT22;13193;48.874;9.086;2022-09-09T07:13:25;19.20;1.00
290;DHT22;13193;48.874;9.086;2022-09-09T07:15:52;19.30;1.00
290;DHT22;13193;48.874;9.086;2022-09-09T07:18:18;19.40;1.00
290;DHT22;13193;48.874;9.086;2022-09-09T07:20:55;19.60;1.00
290;DHT22;13193;48.874;9.086;2022-09-09T07:23:22;19.80;1.00
290;DHT22;13193;48.874;9.086;2022-09-09T07:25:48;20.00;1.00
290;DHT22;13193;48.874;9.086;2022-09-09T07:28:15;20.10;1.00
290;DHT22;13193;48.874;9.086;2022-09-09T07:30:42;20.40;1.00
290;DHT22;13193;48.874;9.086;2022-09-09T07:33:08;20.60;1.00
290;DHT22;13193;48.874;9.086;2022-09-09T07:35:35;20.70;1.00
290;DHT22;13193;48.874;9.086;2022-09-09T07:38:02;20.70;1.00
290;DHT22;13193;48.874;9.086;2022-09-09T07:40:28;20.70;1.00
290;DHT22;13193;48.874;9.086;2022-09-09T07:42:54;20.70;1.00
290;DHT22;13193;48.874;9.086;2022-09-09T07:45:20;20.70;1.00
290;DHT22;13193;48.874;9.086;2022-09-09T07:47:45;20.70;1.00
290;DHT22;13193;48.874;9.086;2022-09-09T07:50:11;20.70;1.00
290;DHT22;13193;48.874;9.086;2022-09-09T07:52:37;20.70;1.00
290;DHT22;13193;48.874;9.086;2022-09-09T07:55:03;20.70;1.00
290;DHT22;13193;48.874;9.086;2022-09-09T07:57:30;20.80;1.00
290;DHT22;13193;48.874;9.086;2022-09-09T07:59:56;21.00;1.00
290;DHT22;13193;48.874;9.086;2022-09-09T08:02:23;21.10;1.00
290;DHT22;13193;48.874;9.086;2022-09-09T08:04:49;21.10;1.00
290;DHT22;13193;48.874;9.086;2022-09-09T08:07:15;21.10;1.00
290;DHT22;13193;48.874;9.086;2022-09-09T08:09:41;21.10;1.00
290;DHT22;13193;48.874;9.086;2022-09-09T08:12:08;20.90;1.00
290;DHT22;13193;48.874;9.086;2022-09-09T08:14:34;20.80;1.00
290;DHT22;13193;48.874;9.086;2022-09-09T08:16:59;20.80;1.00
290;DHT22;13193;48.874;9.086;2022-09-09T08:19:25;20.70;1.00
290;DHT22;13193;48.874;9.086;2022-09-09T08:21:51;20.60;1.00
290;DHT22;13193;48.874;9.086;2022-09-09T08:24:17;20.50;1.00
290;DHT22;13193;48.874;9.086;2022-09-09T08:26:46;20.50;1.00
290;DHT22;13193;48.874;9.086;2022-09-09T08:29:14;20.50;1.00
290;DHT22;13193;48.874;9.086;2022-09-09T08:31:51;20.60;1.00
290;DHT22;13193;48.874;9.086;2022-09-09T08:34:19;20.70;1.00
290;DHT22;13193;48.874;9.086;2022-09-09T08:36:46;20.80;1.00
290;DHT22;13193;48.874;9.086;2022-09-09T08:39:15;20.90;1.00
290;DHT22;13193;48.874;9.086;2022-09-09T08:52:47;21.30;1.00
290;DHT22;13193;48.874;9.086;2022-09-09T08:58:17;21.50;1.00
290;DHT22;13193;48.874;9.086;2022-09-09T09:06:13;21.90;1.00
290;DHT22;13193;48.874;9.086;2022-09-09T09:09:11;22.00;1.00
290;DHT22;13193;48.874;9.086;2022-09-09T09:14:16;22.20;1.00
290;DHT22;13193;48.874;9.086;2022-09-09T09:17:19;22.10;1.00
290;DHT22;13193;48.874;9.086;2022-09-09T09:19:47;22.00;1.00
290;DHT22;13193;48.874;9.086;2022-09-09T09:24:42;21.80;1.00
290;DHT22;13193;48.874;9.086;2022-09-09T09:27:25;21.80;1.00
290;DHT22;13193;48.874;9.086;2022-09-09T09:29:55;21.80;1.00
290;DHT22;13193;48.874;9.086;2022-09-09T09:32:22;21.80;1.00
290;DHT22;13193;48.874;9.086;2022-09-09T09:34:55;21.80;1.00
290;DHT22;13193;48.874;9.086;2022-09-09T09:37:30;21.90;1.00
290;DHT22;13193;48.874;9.086;2022-09-09T09:40:07;22.10;1.00
290;DHT22;13193;48.874;9.086;2022-09-09T09:42:33;22.30;1.00
290;DHT22;13193;48.874;9.086;2022-09-09T09:45:18;22.60;1.00
290;DHT22;13193;48.874;9.086;2022-09-09T09:48:04;23.00;1.00
290;DHT22;13193;48.874;9.086;2022-09-09T09:50:39;23.40;1.00
290;DHT22;13193;48.874;9.086;2022-09-09T09:53:24;23.60;1.00
290;DHT22;13193;48.874;9.086;2022-09-09T09:56:05;23.80;1.00
290;DHT22;13193;48.874;9.086;2022-09-09T10:01:30;24.00;1.00
290;DHT22;13193;48.874;9.086;2022-09-09T10:04:18;24.20;1.00
290;DHT22;13193;48.874;9.086;2022-09-09T10:06:45;24.30;1.00
290;DHT22;13193;48.874;9.086;2022-09-09T10:09:29;24.40;1.00
290;DHT22;13193;48.874;9.086;2022-09-09T10:35:34;25.60;1.00
290;DHT22;13193;48.874;9.086;2022-09-09T10:38:17;25.40;1.00
290;DHT22;13193;48.874;9.086;2022-09-09T10:41:00;25.30;1.00
290;DHT22;13193;48.874;9.086;2022-09-09T10:55:39;25.20;1.00
290;DHT22;13193;48.874;9.086;2022-09-09T11:01:32;24.60;1.00
290;DHT22;13193;48.874;9.086;2022-09-09T11:04:30;24.50;1.00
290;DHT22;13193;48.874;9.086;2022-09-09T11:07:08;24.40;1.00
290;DHT22;13193;48.874;9.086;2022-09-09T11:09:47;24.20;1.00
290;DHT22;13193;48.874;9.086;2022-09-09T11:12:19;24.10;1.00
290;DHT22;13193;48.874;9.086;2022-09-09T11:14:58;23.70;1.00
290;DHT22;13193;48.874;9.086;2022-09-09T11:18:08;23.60;1.00
290;DHT22;13193;48.874;9.086;2022-09-09T11:20:40;23.30;1.00
290;DHT22;13193;48.874;9.086;2022-09-09T11:23:14;23.20;1.00
290;DHT22;13193;48.874;9.086;2022-09-09T11:25:48;23.00;1.00
290;DHT22;13193;48.874;9.086;2022-09-09T11:33:51;22.40;1.00
290;DHT22;13193;48.874;9.086;2022-09-09T11:39:35;22.70;1.00
290;DHT22;13193;48.874;9.086;2022-09-09T11:44:36;23.00;1.00
290;DHT22;13193;48.874;9.086;2022-09-09T11:47:02;23.00;1.00
290;DHT22;13193;48.874;9.086;2022-09-09T11:49:29;23.10;1.00
290;DHT22;13193;48.874;9.086;2022-09-09T11:51:57;23.10;1.00
290;DHT22;13193;48.874;9.086;2022-09-09T11:54:31;23.10;1.00
290;DHT22;13193;48.874;9.086;2022-09-09T11:56:58;23.20;1.00
290;DHT22;13193;48.874;9.086;2022-09-09T11:59:24;23.40;1.00
290;DHT22;13193;48.874;9.086;2022-09-09T12:02:29;23.60;1.00
290;DHT22;13193;48.874;9.086;2022-09-09T12:07:47;24.20;1.00
290;DHT22;13193;48.874;9.086;2022-09-09T12:12:50;24.40;1.00
290;DHT22;13193;48.874;9.086;2022-09-09T12:17:43;24.40;1.00
290;DHT22;13193;48.874;9.086;2022-09-09T12:21:19;24.40;1.00
290;DHT22;13193;48.874;9.086;2022-09-09T12:28:47;24.20;1.00
290;DHT22;13193;48.874;9.086;2022-09-09T12:34:17;23.90;1.00
290;DHT22;13193;48.874;9.086;2022-09-09T12:36:51;23.80;1.00
290;DHT22;13193;48.874;9.086;2022-09-09T12:39:25;23.60;1.00
290;DHT22;13193;48.874;9.086;2022-09-09T12:41:55;23.50;1.00
290;DHT22;13193;48.874;9.086;2022-09-09T12:44:24;23.30;1.00
290;DHT22;13193;48.874;9.086;2022-09-09T12:46:51;23.20;1.00
290;DHT22;13193;48.874;9.086;2022-09-09T12:51:49;22.90;1.00
290;DHT22;13193;48.874;9.086;2022-09-09T12:54:15;22.80;1.00
290;DHT22;13193;48.874;9.086;2022-09-09T12:56:45;22.90;1.00
290;DHT22;13193;48.874;9.086;2022-09-09T12:59:42;22.90;1.00
290;DHT22;13193;48.874;9.086;2022-09-09T13:02:24;22.80;1.00
290;DHT22;13193;48.874;9.086;2022-09-09T13:05:08;22.80;1.00
290;DHT22;13193;48.874;9.086;2022-09-09T13:07:38;22.70;1.00
290;DHT22;13193;48.874;9.086;2022-09-09T13:10:04;22.60;1.00
290;DHT22;13193;48.874;9.086;2022-09-09T13:12:30;22.60;1.00
290;DHT22;13193;48.874;9.086;2022-09-09T13:14:56;22.60;1.00
290;DHT22;13193;48.874;9.086;2022-09-09T13:17:24;22.90;1.00
290;DHT22;13193;48.874;9.086;2022-09-09T13:19:51;23.30;1.00
290;DHT22;13193;48.874;9.086;2022-09-09T13:22:30;23.50;1.00
290;DHT22;13193;48.874;9.086;2022-09-09T13:28:30;23.90;1.00
290;DHT22;13193;48.874;9.086;2022-09-09T13:33:31;24.00;1.00
290;DHT22;13193;48.874;9.086;2022-09-09T13:36:28;24.10;1.00
290;DHT22;13193;48.874;9.086;2022-09-09T13:39:17;24.20;1.00
290;DHT22;13193;48.874;9.086;2022-09-09T13:41:45;24.30;1.00
290;DHT22;13193;48.874;9.086;2022-09-09T13:46:58;24.60;1.00
290;DHT22;13193;48.874;9.086;2022-09-09T13:49:28;24.70;1.00
290;DHT22;13193;48.874;9.086;2022-09-09T13:52:04;24.70;1.00
290;DHT22;13193;48.874;9.086;2022-09-09T13:54:31;24.80;1.00
290;DHT22;13193;48.874;9.086;2022-09-09T13:57:04;24.90;1.00
290;DHT22;13193;48.874;9.086;2022-09-09T13:59:49;24.90;1.00
290;DHT22;13193;48.874;9.086;2022-09-09T14:02:18;25.00;1.00
290;DHT22;13193;48.874;9.086;2022-09-09T14:04:44;25.00;1.00
290;DHT22;13193;48.874;9.086;2022-09-09T14:07:14;25.00;1.00
290;DHT22;13193;48.874;9.086;2022-09-09T14:09:40;25.00;1.00
290;DHT22;13193;48.874;9.086;2022-09-09T14:12:13;25.10;1.00
290;DHT22;13193;48.874;9.086;2022-09-09T14:14:40;25.10;1.00
290;DHT22;13193;48.874;9.086;2022-09-09T14:17:22;25.30;1.00
290;DHT22;13193;48.874;9.086;2022-09-09T14:19:51;25.30;1.00
290;DHT22;13193;48.874;9.086;2022-09-09T14:25:41;25.40;1.00
290;DHT22;13193;48.874;9.086;2022-09-09T14:28:22;25.50;1.00
290;DHT22;13193;48.874;9.086;2022-09-09T14:31:01;25.60;1.00
290;DHT22;13193;48.874;9.086;2022-09-09T14:33:48;25.50;1.00
290;DHT22;13193;48.874;9.086;2022-09-09T14:36:34;25.50;1.00
290;DHT22;13193;48.874;9.086;2022-09-09T14:42:16;25.70;1.00
290;DHT22;13193;48.874;9.086;2022-09-09T14:44:57;25.70;1.00
290;DHT22;13193;48.874;9.086;2022-09-09T14:47:30;25.50;1.00
290;DHT22;13193;48.874;9.086;2022-09-09T14:50:34;25.70;1.00
290;DHT22;13193;48.874;9.086;2022-09-09T14:53:05;24.90;1.00
290;DHT22;13193;48.874;9.086;2022-09-09T14:55:37;25.50;1.00
290;DHT22;13193;48.874;9.086;2022-09-09T14:58:32;25.50;1.00
290;DHT22;13193;48.874;9.086;2022-09-09T15:01:14;25.30;1.00
290;DHT22;13193;48.874;9.086;2022-09-09T15:03:56;25.20;1.00
290;DHT22;13193;48.874;9.086;2022-09-09T15:06:41;25.20;1.00
290;DHT22;13193;48.874;9.086;2022-09-09T15:09:43;25.00;1.00
290;DHT22;13193;48.874;9.086;2022-09-09T15:12:28;24.80;1.00
290;DHT22;13193;48.874;9.086;2022-09-09T15:15:14;24.80;1.00
290;DHT22;13193;48.874;9.086;2022-09-09T15:17:45;24.90;1.00
290;DHT22;13193;48.874;9.086;2022-09-09T15:20:19;24.90;1.00
290;DHT22;13193;48.874;9.086;2022-09-09T15:23:08;24.00;1.00
290;DHT22;13193;48.874;9.086;2022-09-09T15:29:05;24.70;1.00
290;DHT22;13193;48.874;9.086;2022-09-09T15:31:38;24.10;1.00
290;DHT22;13193;48.874;9.086;2022-09-09T15:34:11;24.60;1.00
290;DHT22;13193;48.874;9.086;2022-09-09T15:36:50;24.60;1.00
290;DHT22;13193;48.874;9.086;2022-09-09T15:39:31;24.60;1.00
290;DHT22;13193;48.874;9.086;2022-09-09T15:42:02;24.30;1.00
290;DHT22;13193;48.874;9.086;2022-09-09T15:44:42;24.20;1.00
290;DHT22;13193;48.874;9.086;2022-09-09T15:47:14;24.00;1.00
290;DHT22;13193;48.874;9.086;2022-09-09T15:52:59;23.50;1.00
290;DHT22;13193;48.874;9.086;2022-09-09T15:58:57;23.00;1.00
290;DHT22;13193;48.874;9.086;2022-09-09T16:01:49;22.70;1.00
290;DHT22;13193;48.874;9.086;2022-09-09T16:04:24;22.60;1.00
290;DHT22;13193;48.874;9.086;2022-09-09T16:07:00;22.50;1.00
290;DHT22;13193;48.874;9.086;2022-09-09T16:09:47;22.30;1.00
290;DHT22;13193;48.874;9.086;2022-09-09T16:15:54;22.10;1.00
290;DHT22;13193;48.874;9.086;2022-09-09T16:18:40;21.90;1.00
290;DHT22;13193;48.874;9.086;2022-09-09T16:21:16;21.60;1.00
290;DHT22;13193;48.874;9.086;2022-09-09T16:23:53;21.00;1.00
290;DHT22;13193;48.874;9.086;2022-09-09T16:26:44;20.50;1.00
290;DHT22;13193;48.874;9.086;2022-09-09T16:29:17;20.00;1.00
290;DHT22;13193;48.874;9.086;2022-09-09T16:31:46;19.70;1.00
290;DHT22;13193;48.874;9.086;2022-09-09T16:34:15;19.40;1.00
290;DHT22;13193;48.874;9.086;2022-09-09T16:36:42;19.10;1.00
290;DHT22;13193;48.874;9.086;2022-09-09T16:39:14;18.10;1.00
290;DHT22;13193;48.874;9.086;2022-09-09T16:42:00;18.90;1.00
290;DHT22;13193;48.874;9.086;2022-09-09T16:44:30;18.70;1.00
290;DHT22;13193;48.874;9.086;2022-09-09T16:47:48;18.60;1.00
290;DHT22;13193;48.874;9.086;2022-09-09T16:50:14;18.60;1.00
290;DHT22;13193;48.874;9.086;2022-09-09T16:52:45;18.60;1.00
290;DHT22;13193;48.874;9.086;2022-09-09T16:55:17;19.10;1.00
290;DHT22;13193;48.874;9.086;2022-09-09T16:57:47;18.30;1.00
290;DHT22;13193;48.874;9.086;2022-09-09T17:00:15;18.30;1.00
290;DHT22;13193;48.874;9.086;2022-09-09T17:02:49;18.40;1.00
290;DHT22;13193;48.874;9.086;2022-09-09T17:05:17;18.50;1.00
290;DHT22;13193;48.874;9.086;2022-09-09T17:07:43;18.60;1.00
290;DHT22;13193;48.874;9.086;2022-09-09T17:10:11;18.80;1.00
290;DHT22;13193;48.874;9.086;2022-09-09T17:12:44;18.90;1.00
290;DHT22;13193;48.874;9.086;2022-09-09T17:15:19;18.90;1.00
290;DHT22;13193;48.874;9.086;2022-09-09T17:17:49;19.00;1.00
290;DHT22;13193;48.874;9.086;2022-09-09T17:20:22;18.80;1.00
290;DHT22;13193;48.874;9.086;2022-09-09T17:22:50;18.80;1.00
290;DHT22;13193;48.874;9.086;2022-09-09T17:25:30;18.50;1.00
290;DHT22;13193;48.874;9.086;2022-09-09T17:27:58;18.40;1.00
290;DHT22;13193;48.874;9.086;2022-09-09T17:30:37;18.30;1.00
290;DHT22;13193;48.874;9.086;2022-09-09T17:33:05;18.20;1.00
290;DHT22;13193;48.874;9.086;2022-09-09T17:35:32;17.90;1.00
290;DHT22;13193;48.874;9.086;2022-09-09T17:38:01;17.90;1.00
290;DHT22;13193;48.874;9.086;2022-09-09T17:40:29;17.80;1.00
290;DHT22;13193;48.874;9.086;2022-09-09T17:42:56;17.60;1.00
290;DHT22;13193;48.874;9.086;2022-09-09T17:45:34;17.50;1.00
290;DHT22;13193;48.874;9.086;2022-09-09T17:47:59;17.30;1.00
290;DHT22;13193;48.874;9.086;2022-09-09T17:50:25;17.10;1.00
290;DHT22;13193;48.874;9.086;2022-09-09T17:52:52;17.00;1.00
290;DHT22;13193;48.874;9.086;2022-09-09T17:55:19;16.90;1.00
290;DHT22;13193;48.874;9.086;2022-09-09T17:57:45;16.70;1.00
290;DHT22;13193;48.874;9.086;2022-09-09T18:00:11;16.60;1.00
290;DHT22;13193;48.874;9.086;2022-09-09T18:02:38;16.50;1.00
290;DHT22;13193;48.874;9.086;2022-09-09T18:05:04;16.40;1.00
290;DHT22;13193;48.874;9.086;2022-09-09T18:07:30;16.30;1.00
290;DHT22;13193;48.874;9.086;2022-09-09T18:09:56;16.20;1.00
290;DHT22;13193;48.874;9.086;2022-09-09T18:12:23;16.20;1.00
290;DHT22;13193;48.874;9.086;2022-09-09T18:14:48;16.20;1.00
290;DHT22;13193;48.874;9.086;2022-09-09T18:17:15;16.20;1.00
290;DHT22;13193;48.874;9.086;2022-09-09T18:19:40;16.20;1.00
290;DHT22;13193;48.874;9.086;2022-09-09T18:22:06;16.20;1.00
290;DHT22;13193;48.874;9.086;2022-09-09T18:24:33;16.30;1.00
290;DHT22;13193;48.874;9.086;2022-09-09T18:27:00;16.30;1.00
290;DHT22;13193;48.874;9.086;2022-09-09T18:29:26;16.30;1.00
290;DHT22;13193;48.874;9.086;2022-09-09T18:31:54;16.30;1.00
290;DHT22;13193;48.874;9.086;2022-09-09T18:34:22;16.30;1.00
290;DHT22;13193;48.874;9.086;2022-09-09T18:36:50;16.30;1.00
290;DHT22;13193;48.874;9.086;2022-09-09T18:39:18;16.30;1.00
290;DHT22;13193;48.874;9.086;2022-09-09T18:41:49;16.30;1.00
290;DHT22;13193;48.874;9.086;2022-09-09T18:44:18;16.30;1.00
290;DHT22;13193;48.874;9.086;2022-09-09T18:46:45;16.30;1.00
290;DHT22;13193;48.874;9.086;2022-09-09T18:49:11;16.30;1.00
290;DHT22;13193;48.874;9.086;2022-09-09T18:51:38;16.20;1.00
290;DHT22;13193;48.874;9.086;2022-09-09T18:54:29;16.20;1.00
290;DHT22;13193;48.874;9.086;2022-09-09T18:56:55;16.10;1.00
290;DHT22;13193;48.874;9.086;2022-09-09T18:59:22;16.10;1.00
290;DHT22;13193;48.874;9.086;2022-09-09T19:01:50;16.00;1.00
290;DHT22;13193;48.874;9.086;2022-09-09T19:04:17;15.90;1.00
290;DHT22;13193;48.874;9.086;2022-09-09T19:06:44;15.90;1.00
290;DHT22;13193;48.874;9.086;2022-09-09T19:09:12;15.80;1.00
290;DHT22;13193;48.874;9.086;2022-09-09T19:11:39;15.70;1.00
290;DHT22;13193;48.874;9.086;2022-09-09T19:14:06;15.70;1.00
290;DHT22;13193;48.874;9.086;2022-09-09T19:16:33;15.60;1.00
290;DHT22;13193;48.874;9.086;2022-09-09T19:19:02;15.50;1.00
290;DHT22;13193;48.874;9.086;2022-09-09T19:21:37;15.50;1.00
290;DHT22;13193;48.874;9.086;2022-09-09T19:24:23;15.40;1.00